sensor_id;sensor_type;location;lat;lon;timestamp;pressure;altitude;pressure_sealevel;temperature;humidity
42519;BME280;28147;47.520;18.920;2023-01-24T00:00:06;99702.00;;;8.99;71.07
42519;BME280;28147;47.520;18.920;2023-01-24T00:02:31;99708.88;;;8.93;71.47
42519;BME280;28147;47.520;18.920;2023-01-24T00:04:57;99699.69;;;9.17;70.27
42519;BME280;28147;47.520;18.920;2023-01-24T00:07:22;99703.25;;;9.31;69.40
42519;BME280;28147;47.520;18.920;2023-01-24T00:09:48;99702.91;;;9.13;69.89
42519;BME280;28147;47.520;18.920;2023-01-24T00:12:13;99700.66;;;9.38;69.17
42519;BME280;28147;47.520;18.920;2023-01-24T00:14:38;99703.47;;;9.30;69.49
42519;BME280;28147;47.520;18.920;2023-01-24T00:17:04;99702.81;;;8.99;70.40
42519;BME280;28147;47.520;18.920;2023-01-24T00:19:29;99702.59;;;9.01;70.92
42519;BME280;28147;47.520;18.920;2023-01-24T00:21:55;99699.56;;;9.04;70.78
42519;BME280;28147;47.520;18.920;2023-01-24T00:24:20;99697.38;;;8.86;71.11
42519;BME280;28147;47.520;18.920;2023-01-24T00:26:46;99698.38;;;8.85;71.50
42519;BME280;28147;47.520;18.920;2023-01-24T00:29:11;99699.34;;;8.77;71.71
42519;BME280;28147;47.520;18.920;2023-01-24T00:31:37;99702.81;;;8.78;71.23
42519;BME280;28147;47.520;18.920;2023-01-24T00:34:02;99702.13;;;8.69;71.52
42519;BME280;28147;47.520;18.920;2023-01-24T00:36:27;99714.44;;;8.77;71.73
42519;BME280;28147;47.520;18.920;2023-01-24T00:38:53;99709.50;;;8.74;71.71
42519;BME280;28147;47.520;18.920;2023-01-24T00:41:19;99703.25;;;8.82;71.41
42519;BME280;28147;47.520;18.920;2023-01-24T00:43:45;99706.56;;;8.84;71.43
42519;BME280;28147;47.520;18.920;2023-01-24T00:46:10;99711.56;;;8.72;71.83
42519;BME280;28147;47.520;18.920;2023-01-24T00:48:36;99716.66;;;8.73;71.48
42519;BME280;28147;47.520;18.920;2023-01-24T00:51:02;99718.69;;;8.71;71.91
42519;BME280;28147;47.520;18.920;2023-01-24T00:53:28;99715.16;;;8.64;71.97
42519;BME280;28147;47.520;18.920;2023-01-24T00:55:53;99713.31;;;8.65;71.79
42519;BME280;28147;47.520;18.920;2023-01-24T00:58:20;99721.13;;;8.51;72.08
42519;BME280;28147;47.520;18.920;2023-01-24T01:00:46;99717.34;;;8.61;71.73
42519;BME280;28147;47.520;18.920;2023-01-24T01:03:20;99718.75;;;8.57;71.71
42519;BME280;28147;47.520;18.920;2023-01-24T01:05:46;99730.78;;;8.59;71.91
42519;BME280;28147;47.520;18.920;2023-01-24T01:08:12;99725.38;;;8.67;71.62
42519;BME280;28147;47.520;18.920;2023-01-24T01:10:38;99723.28;;;8.63;71.88
42519;BME280;28147;47.520;18.920;2023-01-24T01:13:03;99725.88;;;8.77;71.33
42519;BME280;28147;47.520;18.920;2023-01-24T01:15:30;99733.56;;;8.87;70.59
42519;BME280;28147;47.520;18.920;2023-01-24T01:17:56;99731.34;;;8.91;70.44
42519;BME280;28147;47.520;18.920;2023-01-24T01:20:22;99735.31;;;8.80;70.90
42519;BME280;28147;47.520;18.920;2023-01-24T01:22:47;99737.91;;;8.95;70.27
42519;BME280;28147;47.520;18.920;2023-01-24T01:25:13;99738.13;;;8.78;71.00
42519;BME280;28147;47.520;18.920;2023-01-24T01:27:38;99731.97;;;8.93;70.03
42519;BME280;28147;47.520;18.920;2023-01-24T01:30:04;99730.81;;;8.81;70.18
42519;BME280;28147;47.520;18.920;2023-01-24T01:32:30;99728.47;;;8.92;70.07
42519;BME280;28147;47.520;18.920;2023-01-24T01:34:55;99735.88;;;8.97;69.16
42519;BME280;28147;47.520;18.920;2023-01-24T01:37:21;99733.66;;;9.00;69.49
42519;BME280;28147;47.520;18.920;2023-01-24T01:39:46;99729.69;;;8.90;69.69
42519;BME280;28147;47.520;18.920;2023-01-24T01:42:11;99743.59;;;9.13;68.52
42519;BME280;28147;47.520;18.920;2023-01-24T01:44:39;99734.19;;;9.11;68.34
42519;BME280;28147;47.520;18.920;2023-01-24T01:49:44;99742.06;;;9.04;68.28
42519;BME280;28147;47.520;18.920;2023-01-24T01:52:11;99750.13;;;9.11;68.04
42519;BME280;28147;47.520;18.920;2023-01-24T01:54:39;99752.19;;;9.15;67.80
42519;BME280;28147;47.520;18.920;2023-01-24T01:57:30;99752.88;;;9.24;67.40
42519;BME280;28147;47.520;18.920;2023-01-24T02:02:26;99754.91;;;9.22;66.78
42519;BME280;28147;47.520;18.920;2023-01-24T02:04:56;99754.28;;;9.20;66.86
42519;BME280;28147;47.520;18.920;2023-01-24T02:07:34;99751.50;;;9.07;67.05
42519;BME280;28147;47.520;18.920;2023-01-24T02:10:03;99751.44;;;9.00;67.24
42519;BME280;28147;47.520;18.920;2023-01-24T02:12:32;99748.84;;;8.85;67.16
42519;BME280;28147;47.520;18.920;2023-01-24T02:15:05;99749.59;;;9.00;66.83
42519;BME280;28147;47.520;18.920;2023-01-24T02:17:50;99740.06;;;8.85;67.38
42519;BME280;28147;47.520;18.920;2023-01-24T02:20:44;99754.16;;;8.85;67.56
42519;BME280;28147;47.520;18.920;2023-01-24T02:28:32;99767.28;;;8.93;67.00
42519;BME280;28147;47.520;18.920;2023-01-24T02:30:59;99765.75;;;8.99;66.19
42519;BME280;28147;47.520;18.920;2023-01-24T02:33:26;99763.50;;;8.81;66.90
42519;BME280;28147;47.520;18.920;2023-01-24T02:36:11;99766.97;;;8.82;66.70
42519;BME280;28147;47.520;18.920;2023-01-24T02:38:37;99759.28;;;8.87;66.63
42519;BME280;28147;47.520;18.920;2023-01-24T02:41:04;99761.63;;;8.96;66.00
42519;BME280;28147;47.520;18.920;2023-01-24T02:43:40;99767.28;;;8.72;66.15
42519;BME280;28147;47.520;18.920;2023-01-24T02:46:07;99761.22;;;8.78;66.17
42519;BME280;28147;47.520;18.920;2023-01-24T02:48:33;99768.19;;;8.79;66.14
42519;BME280;28147;47.520;18.920;2023-01-24T02:50:59;99765.13;;;8.61;66.63
42519;BME280;28147;47.520;18.920;2023-01-24T02:53:43;99766.19;;;8.66;66.05
42519;BME280;28147;47.520;18.920;2023-01-24T02:56:09;99775.72;;;8.75;66.02
42519;BME280;28147;47.520;18.920;2023-01-24T02:58:53;99774.03;;;8.74;65.69
42519;BME280;28147;47.520;18.920;2023-01-24T03:01:21;99772.31;;;8.67;66.03
42519;BME280;28147;47.520;18.920;2023-01-24T03:03:47;99782.41;;;8.71;66.24
42519;BME280;28147;47.520;18.920;2023-01-24T03:06:15;99781.22;;;8.59;66.35
42519;BME280;28147;47.520;18.920;2023-01-24T03:08:41;99781.41;;;8.58;66.12
42519;BME280;28147;47.520;18.920;2023-01-24T03:11:07;99779.25;;;8.46;66.19
42519;BME280;28147;47.520;18.920;2023-01-24T03:13:34;99785.13;;;8.42;66.34
42519;BME280;28147;47.520;18.920;2023-01-24T03:16:18;99789.22;;;8.44;66.85
42519;BME280;28147;47.520;18.920;2023-01-24T03:19:03;99787.81;;;8.48;66.16
42519;BME280;28147;47.520;18.920;2023-01-24T03:21:47;99797.22;;;8.66;65.62
42519;BME280;28147;47.520;18.920;2023-01-24T03:24:31;99788.34;;;8.73;64.90
42519;BME280;28147;47.520;18.920;2023-01-24T03:27:15;99793.31;;;8.62;65.50
42519;BME280;28147;47.520;18.920;2023-01-24T03:30:00;99798.59;;;8.76;64.34
42519;BME280;28147;47.520;18.920;2023-01-24T03:32:43;99792.66;;;8.60;65.13
42519;BME280;28147;47.520;18.920;2023-01-24T03:35:28;99795.88;;;8.55;66.20
42519;BME280;28147;47.520;18.920;2023-01-24T03:37:53;99796.69;;;8.56;65.85
42519;BME280;28147;47.520;18.920;2023-01-24T03:40:38;99798.28;;;8.50;66.48
42519;BME280;28147;47.520;18.920;2023-01-24T03:43:04;99798.72;;;8.53;66.01
42519;BME280;28147;47.520;18.920;2023-01-24T03:45:32;99798.72;;;8.53;66.27
42519;BME280;28147;47.520;18.920;2023-01-24T03:48:00;99802.22;;;8.39;66.38
42519;BME280;28147;47.520;18.920;2023-01-24T03:50:31;99799.63;;;8.31;66.53
42519;BME280;28147;47.520;18.920;2023-01-24T03:53:16;99800.91;;;8.35;66.78
42519;BME280;28147;47.520;18.920;2023-01-24T03:55:42;99798.81;;;8.31;65.91
42519;BME280;28147;47.520;18.920;2023-01-24T03:58:09;99804.50;;;8.42;65.22
42519;BME280;28147;47.520;18.920;2023-01-24T04:00:36;99802.88;;;8.41;65.56
42519;BME280;28147;47.520;18.920;2023-01-24T04:03:02;99794.44;;;8.23;66.20
42519;BME280;28147;47.520;18.920;2023-01-24T04:05:27;99802.91;;;8.33;65.78
42519;BME280;28147;47.520;18.920;2023-01-24T04:07:54;99798.06;;;8.22;65.89
42519;BME280;28147;47.520;18.920;2023-01-24T04:10:20;99810.59;;;8.28;64.96
42519;BME280;28147;47.520;18.920;2023-01-24T04:12:46;99794.88;;;8.26;65.84
42519;BME280;28147;47.520;18.920;2023-01-24T04:15:20;99810.81;;;8.12;66.53
42519;BME280;28147;47.520;18.920;2023-01-24T04:17:46;99804.47;;;7.98;67.67
42519;BME280;28147;47.520;18.920;2023-01-24T04:20:13;99799.72;;;8.08;67.27
42519;BME280;28147;47.520;18.920;2023-01-24T04:22:39;99806.50;;;7.96;67.19
42519;BME280;28147;47.520;18.920;2023-01-24T04:25:05;99799.72;;;8.08;66.88
42519;BME280;28147;47.520;18.920;2023-01-24T04:27:31;99804.22;;;8.08;66.45
42519;BME280;28147;47.520;18.920;2023-01-24T04:29:57;99804.09;;;7.86;67.37
42519;BME280;28147;47.520;18.920;2023-01-24T04:32:22;99798.09;;;7.92;67.22
42519;BME280;28147;47.520;18.920;2023-01-24T04:34:48;99805.59;;;8.03;66.82
42519;BME280;28147;47.520;18.920;2023-01-24T04:37:13;99804.75;;;8.18;65.93
42519;BME280;28147;47.520;18.920;2023-01-24T04:39:39;99797.63;;;8.18;65.86
42519;BME280;28147;47.520;18.920;2023-01-24T04:42:04;99799.28;;;8.19;65.27
42519;BME280;28147;47.520;18.920;2023-01-24T04:44:31;99804.13;;;8.16;65.48
42519;BME280;28147;47.520;18.920;2023-01-24T04:46:56;99808.06;;;8.20;65.16
42519;BME280;28147;47.520;18.920;2023-01-24T04:49:22;99809.34;;;8.24;64.53
42519;BME280;28147;47.520;18.920;2023-01-24T04:51:49;99811.34;;;8.22;64.51
42519;BME280;28147;47.520;18.920;2023-01-24T04:54:16;99814.47;;;8.40;63.73
42519;BME280;28147;47.520;18.920;2023-01-24T04:56:43;99821.44;;;8.41;63.31
42519;BME280;28147;47.520;18.920;2023-01-24T04:59:12;99824.78;;;8.35;63.18
42519;BME280;28147;47.520;18.920;2023-01-24T05:01:38;99821.50;;;8.48;63.00
42519;BME280;28147;47.520;18.920;2023-01-24T05:04:04;99822.59;;;8.24;64.61
42519;BME280;28147;47.520;18.920;2023-01-24T05:06:31;99820.03;;;8.01;65.31
42519;BME280;28147;47.520;18.920;2023-01-24T05:08:57;99824.41;;;8.09;64.46
42519;BME280;28147;47.520;18.920;2023-01-24T05:11:23;99823.59;;;8.23;64.09
42519;BME280;28147;47.520;18.920;2023-01-24T05:13:48;99825.09;;;8.40;62.99
42519;BME280;28147;47.520;18.920;2023-01-24T05:16:14;99824.06;;;8.26;63.38
42519;BME280;28147;47.520;18.920;2023-01-24T05:18:40;99826.78;;;8.33;63.40
42519;BME280;28147;47.520;18.920;2023-01-24T05:21:07;99830.19;;;8.27;63.55
42519;BME280;28147;47.520;18.920;2023-01-24T05:23:33;99830.75;;;8.22;63.60
42519;BME280;28147;47.520;18.920;2023-01-24T05:26:02;99825.16;;;8.17;63.93
42519;BME280;28147;47.520;18.920;2023-01-24T05:28:28;99825.50;;;8.14;64.11
42519;BME280;28147;47.520;18.920;2023-01-24T05:31:01;99837.31;;;8.12;64.15
42519;BME280;28147;47.520;18.920;2023-01-24T05:33:27;99829.84;;;8.30;63.13
42519;BME280;28147;47.520;18.920;2023-01-24T05:38:32;99830.25;;;7.89;65.42
42519;BME280;28147;47.520;18.920;2023-01-24T05:41:07;99829.06;;;8.07;64.57
42519;BME280;28147;47.520;18.920;2023-01-24T05:43:34;99834.56;;;8.05;65.30
42519;BME280;28147;47.520;18.920;2023-01-24T05:46:02;99832.16;;;7.95;65.40
42519;BME280;28147;47.520;18.920;2023-01-24T05:48:28;99831.72;;;7.92;66.07
42519;BME280;28147;47.520;18.920;2023-01-24T05:51:01;99827.84;;;7.79;66.57
42519;BME280;28147;47.520;18.920;2023-01-24T05:53:28;99836.06;;;7.70;66.91
42519;BME280;28147;47.520;18.920;2023-01-24T05:55:55;99835.06;;;7.71;67.24
42519;BME280;28147;47.520;18.920;2023-01-24T05:58:21;99827.72;;;7.96;67.14
42519;BME280;28147;47.520;18.920;2023-01-24T06:00:46;99830.88;;;7.91;67.09
42519;BME280;28147;47.520;18.920;2023-01-24T06:03:12;99841.88;;;7.88;66.94
42519;BME280;28147;47.520;18.920;2023-01-24T06:05:38;99842.59;;;7.82;67.59
42519;BME280;28147;47.520;18.920;2023-01-24T06:08:03;99843.22;;;7.46;68.70
42519;BME280;28147;47.520;18.920;2023-01-24T06:10:29;99853.28;;;7.51;68.15
42519;BME280;28147;47.520;18.920;2023-01-24T06:12:54;99852.97;;;7.69;67.70
42519;BME280;28147;47.520;18.920;2023-01-24T06:15:19;99853.91;;;7.53;68.35
42519;BME280;28147;47.520;18.920;2023-01-24T06:17:45;99853.28;;;7.51;68.23
42519;BME280;28147;47.520;18.920;2023-01-24T06:20:11;99866.69;;;7.49;68.80
42519;BME280;28147;47.520;18.920;2023-01-24T06:22:45;99865.34;;;7.30;69.24
42519;BME280;28147;47.520;18.920;2023-01-24T06:25:27;99866.88;;;7.25;69.33
42519;BME280;28147;47.520;18.920;2023-01-24T06:27:53;99867.09;;;7.38;69.01
42519;BME280;28147;47.520;18.920;2023-01-24T06:30:19;99863.34;;;7.32;69.01
42519;BME280;28147;47.520;18.920;2023-01-24T06:38:23;99877.00;;;7.21;70.01
42519;BME280;28147;47.520;18.920;2023-01-24T06:40:53;99867.34;;;7.28;69.74
42519;BME280;28147;47.520;18.920;2023-01-24T06:43:21;99869.13;;;7.36;69.84
42519;BME280;28147;47.520;18.920;2023-01-24T06:45:46;99866.94;;;7.17;70.40
42519;BME280;28147;47.520;18.920;2023-01-24T06:48:12;99870.22;;;7.42;69.77
42519;BME280;28147;47.520;18.920;2023-01-24T06:50:37;99872.94;;;7.34;70.23
42519;BME280;28147;47.520;18.920;2023-01-24T06:53:03;99871.09;;;7.34;70.54
42519;BME280;28147;47.520;18.920;2023-01-24T06:55:30;99873.25;;;7.62;69.57
42519;BME280;28147;47.520;18.920;2023-01-24T06:57:57;99877.19;;;7.66;68.87
42519;BME280;28147;47.520;18.920;2023-01-24T07:00:23;99873.28;;;7.53;69.32
42519;BME280;28147;47.520;18.920;2023-01-24T07:02:57;99867.94;;;7.62;69.34
42519;BME280;28147;47.520;18.920;2023-01-24T07:05:22;99876.63;;;7.93;68.39
42519;BME280;28147;47.520;18.920;2023-01-24T07:07:48;99877.72;;;7.99;68.75
42519;BME280;28147;47.520;18.920;2023-01-24T07:10:14;99876.31;;;8.26;66.89
42519;BME280;28147;47.520;18.920;2023-01-24T07:12:42;99883.19;;;7.97;68.04
42519;BME280;28147;47.520;18.920;2023-01-24T07:15:08;99888.25;;;8.07;68.13
42519;BME280;28147;47.520;18.920;2023-01-24T07:17:34;99887.78;;;8.03;68.75
42519;BME280;28147;47.520;18.920;2023-01-24T07:19:59;99884.63;;;8.23;68.18
42519;BME280;28147;47.520;18.920;2023-01-24T07:22:25;99884.06;;;8.27;67.73
42519;BME280;28147;47.520;18.920;2023-01-24T07:24:51;99896.16;;;8.30;67.37
42519;BME280;28147;47.520;18.920;2023-01-24T07:27:17;99893.41;;;8.23;68.23
42519;BME280;28147;47.520;18.920;2023-01-24T07:29:42;99899.09;;;8.35;68.36
42519;BME280;28147;47.520;18.920;2023-01-24T07:32:11;99890.25;;;8.72;67.55
42519;BME280;28147;47.520;18.920;2023-01-24T07:34:36;99894.28;;;9.05;68.08
42519;BME280;28147;47.520;18.920;2023-01-24T07:37:02;99901.50;;;9.25;67.01
42519;BME280;28147;47.520;18.920;2023-01-24T07:39:27;99901.56;;;9.54;65.09
42519;BME280;28147;47.520;18.920;2023-01-24T07:41:54;99898.66;;;9.48;64.95
42519;BME280;28147;47.520;18.920;2023-01-24T07:44:19;99897.22;;;9.67;63.97
42519;BME280;28147;47.520;18.920;2023-01-24T07:46:45;99906.00;;;9.46;63.73
42519;BME280;28147;47.520;18.920;2023-01-24T07:49:10;99907.59;;;9.41;63.37
42519;BME280;28147;47.520;18.920;2023-01-24T07:51:36;99905.13;;;9.03;66.53
42519;BME280;28147;47.520;18.920;2023-01-24T07:54:02;99916.66;;;8.95;66.05
42519;BME280;28147;47.520;18.920;2023-01-24T07:56:27;99907.59;;;8.75;66.05
42519;BME280;28147;47.520;18.920;2023-01-24T07:58:53;99916.56;;;9.04;65.89
42519;BME280;28147;47.520;18.920;2023-01-24T08:01:23;99918.53;;;8.65;67.24
42519;BME280;28147;47.520;18.920;2023-01-24T08:03:49;99914.28;;;8.71;67.31
42519;BME280;28147;47.520;18.920;2023-01-24T08:06:14;99917.69;;;8.94;66.96
42519;BME280;28147;47.520;18.920;2023-01-24T08:08:40;99923.47;;;8.98;67.38
42519;BME280;28147;47.520;18.920;2023-01-24T08:11:07;99925.91;;;8.99;66.81
42519;BME280;28147;47.520;18.920;2023-01-24T08:13:32;99930.88;;;8.73;68.02
42519;BME280;28147;47.520;18.920;2023-01-24T08:16:01;99936.41;;;9.22;66.41
42519;BME280;28147;47.520;18.920;2023-01-24T08:18:26;99933.78;;;9.08;66.62
42519;BME280;28147;47.520;18.920;2023-01-24T08:20:55;99939.38;;;8.98;66.87
42519;BME280;28147;47.520;18.920;2023-01-24T08:23:20;99945.66;;;9.12;65.31
42519;BME280;28147;47.520;18.920;2023-01-24T08:25:45;99949.28;;;9.40;63.48
42519;BME280;28147;47.520;18.920;2023-01-24T08:28:11;99951.16;;;9.83;63.92
42519;BME280;28147;47.520;18.920;2023-01-24T08:30:36;99950.66;;;10.43;61.75
42519;BME280;28147;47.520;18.920;2023-01-24T08:33:03;99946.84;;;10.94;60.52
42519;BME280;28147;47.520;18.920;2023-01-24T08:35:29;99946.63;;;11.43;58.91
42519;BME280;28147;47.520;18.920;2023-01-24T08:37:55;99946.25;;;11.53;57.60
42519;BME280;28147;47.520;18.920;2023-01-24T08:40:20;99934.63;;;11.81;54.74
42519;BME280;28147;47.520;18.920;2023-01-24T08:42:45;99947.19;;;12.27;52.81
42519;BME280;28147;47.520;18.920;2023-01-24T08:45:11;99951.31;;;12.43;51.28
42519;BME280;28147;47.520;18.920;2023-01-24T08:47:36;99948.38;;;12.77;51.81
42519;BME280;28147;47.520;18.920;2023-01-24T08:50:02;99951.03;;;12.64;50.04
42519;BME280;28147;47.520;18.920;2023-01-24T08:52:28;99952.53;;;12.40;49.55
42519;BME280;28147;47.520;18.920;2023-01-24T08:54:53;99955.38;;;12.58;50.15
42519;BME280;28147;47.520;18.920;2023-01-24T08:57:18;99950.81;;;12.85;49.46
42519;BME280;28147;47.520;18.920;2023-01-24T08:59:44;99946.56;;;12.11;49.18
42519;BME280;28147;47.520;18.920;2023-01-24T09:02:13;99956.63;;;12.49;49.34
42519;BME280;28147;47.520;18.920;2023-01-24T09:04:39;99953.97;;;12.43;49.93
42519;BME280;28147;47.520;18.920;2023-01-24T09:07:07;99963.00;;;12.35;48.94
42519;BME280;28147;47.520;18.920;2023-01-24T09:09:32;99955.63;;;12.17;50.29
42519;BME280;28147;47.520;18.920;2023-01-24T09:11:58;99967.31;;;12.36;49.04
42519;BME280;28147;47.520;18.920;2023-01-24T09:14:23;99964.03;;;12.27;48.78
42519;BME280;28147;47.520;18.920;2023-01-24T09:16:49;99956.22;;;12.32;49.48
42519;BME280;28147;47.520;18.920;2023-01-24T09:19:14;99957.25;;;12.45;48.65
42519;BME280;28147;47.520;18.920;2023-01-24T09:21:41;99952.72;;;12.58;48.49
42519;BME280;28147;47.520;18.920;2023-01-24T09:24:06;99958.88;;;12.46;48.38
42519;BME280;28147;47.520;18.920;2023-01-24T09:26:32;99964.25;;;12.32;48.70
42519;BME280;28147;47.520;18.920;2023-01-24T09:28:57;99967.31;;;12.29;47.44
42519;BME280;28147;47.520;18.920;2023-01-24T09:31:23;99969.38;;;12.14;49.39
42519;BME280;28147;47.520;18.920;2023-01-24T09:33:48;99962.59;;;12.18;48.36
42519;BME280;28147;47.520;18.920;2023-01-24T09:36:13;99965.44;;;11.97;47.93
42519;BME280;28147;47.520;18.920;2023-01-24T09:38:39;99959.31;;;12.03;47.79
42519;BME280;28147;47.520;18.920;2023-01-24T09:43:58;99949.81;;;12.66;47.50
42519;BME280;28147;47.520;18.920;2023-01-24T09:46:46;99947.03;;;13.06;44.47
42519;BME280;28147;47.520;18.920;2023-01-24T09:49:17;99943.25;;;13.21;45.45
42519;BME280;28147;47.520;18.920;2023-01-24T09:51:50;99924.00;;;13.05;45.71
42519;BME280;28147;47.520;18.920;2023-01-24T09:54:50;99942.13;;;12.97;45.16
42519;BME280;28147;47.520;18.920;2023-01-24T09:57:26;99947.13;;;12.73;44.38
42519;BME280;28147;47.520;18.920;2023-01-24T09:59:56;99936.22;;;12.81;45.26
42519;BME280;28147;47.520;18.920;2023-01-24T10:02:24;99934.78;;;12.85;45.02
42519;BME280;28147;47.520;18.920;2023-01-24T10:04:52;99930.16;;;13.06;44.24
42519;BME280;28147;47.520;18.920;2023-01-24T10:18:17;99920.72;;;13.48;43.06
42519;BME280;28147;47.520;18.920;2023-01-24T10:23:38;99909.88;;;14.43;41.64
42519;BME280;28147;47.520;18.920;2023-01-24T10:26:14;99910.88;;;14.49;40.13
42519;BME280;28147;47.520;18.920;2023-01-24T10:28:46;99909.56;;;14.15;39.54
42519;BME280;28147;47.520;18.920;2023-01-24T10:31:25;99910.00;;;13.86;40.40
42519;BME280;28147;47.520;18.920;2023-01-24T10:33:56;99900.38;;;13.47;40.50
42519;BME280;28147;47.520;18.920;2023-01-24T10:36:44;99898.22;;;13.62;41.64
42519;BME280;28147;47.520;18.920;2023-01-24T10:39:11;99899.56;;;13.47;41.30
42519;BME280;28147;47.520;18.920;2023-01-24T10:41:37;99896.34;;;13.63;41.93
42519;BME280;28147;47.520;18.920;2023-01-24T10:49:38;99902.47;;;13.70;41.48
42519;BME280;28147;47.520;18.920;2023-01-24T10:52:19;99898.56;;;13.73;39.98
42519;BME280;28147;47.520;18.920;2023-01-24T10:54:47;99906.75;;;13.78;40.32
42519;BME280;28147;47.520;18.920;2023-01-24T11:02:59;99900.06;;;13.62;39.73
42519;BME280;28147;47.520;18.920;2023-01-24T11:05:38;99891.91;;;13.50;39.90
42519;BME280;28147;47.520;18.920;2023-01-24T11:08:04;99890.94;;;13.00;40.05
42519;BME280;28147;47.520;18.920;2023-01-24T11:10:37;99886.09;;;12.70;40.41
42519;BME280;28147;47.520;18.920;2023-01-24T11:13:18;99876.16;;;12.84;40.39
42519;BME280;28147;47.520;18.920;2023-01-24T11:15:53;99877.41;;;12.88;41.70
42519;BME280;28147;47.520;18.920;2023-01-24T11:18:23;99877.91;;;12.58;40.99
42519;BME280;28147;47.520;18.920;2023-01-24T11:21:08;99869.50;;;12.61;41.47
42519;BME280;28147;47.520;18.920;2023-01-24T11:23:33;99869.50;;;12.55;41.28
42519;BME280;28147;47.520;18.920;2023-01-24T11:26:01;99861.91;;;12.45;41.94
42519;BME280;28147;47.520;18.920;2023-01-24T11:28:28;99857.75;;;12.62;41.00
42519;BME280;28147;47.520;18.920;2023-01-24T11:30:56;99859.81;;;12.54;42.56
42519;BME280;28147;47.520;18.920;2023-01-24T11:36:39;99852.09;;;12.26;43.69
42519;BME280;28147;47.520;18.920;2023-01-24T12:04:52;99829.34;;;11.97;41.37
42519;BME280;28147;47.520;18.920;2023-01-24T12:07:51;99833.25;;;11.87;41.28
42519;BME280;28147;47.520;18.920;2023-01-24T12:13:42;99834.28;;;12.00;41.39
42519;BME280;28147;47.520;18.920;2023-01-24T12:16:18;99836.13;;;11.99;41.80
42519;BME280;28147;47.520;18.920;2023-01-24T12:21:54;99815.94;;;12.23;41.31
42519;BME280;28147;47.520;18.920;2023-01-24T12:24:32;99828.06;;;12.39;41.09
42519;BME280;28147;47.520;18.920;2023-01-24T12:27:07;99820.88;;;12.33;41.49
42519;BME280;28147;47.520;18.920;2023-01-24T12:29:42;99820.28;;;12.17;40.98
42519;BME280;28147;47.520;18.920;2023-01-24T12:37:39;99820.06;;;12.19;42.86
42519;BME280;28147;47.520;18.920;2023-01-24T12:46:04;99818.22;;;12.20;44.75
42519;BME280;28147;47.520;18.920;2023-01-24T12:53:33;99827.06;;;12.20;44.41
42519;BME280;28147;47.520;18.920;2023-01-24T12:56:17;99815.38;;;12.14;44.63
42519;BME280;28147;47.520;18.920;2023-01-24T12:58:47;99825.00;;;12.29;45.58
42519;BME280;28147;47.520;18.920;2023-01-24T13:09:29;99822.97;;;11.71;46.32
42519;BME280;28147;47.520;18.920;2023-01-24T13:12:02;99819.47;;;11.77;46.26
42519;BME280;28147;47.520;18.920;2023-01-24T13:14:36;99820.69;;;11.81;46.79
42519;BME280;28147;47.520;18.920;2023-01-24T13:17:31;99820.31;;;11.84;46.80
42519;BME280;28147;47.520;18.920;2023-01-24T13:20:12;99818.25;;;11.73;48.09
42519;BME280;28147;47.520;18.920;2023-01-24T13:27:57;99823.59;;;11.80;48.99
42519;BME280;28147;47.520;18.920;2023-01-24T13:30:46;99824.22;;;11.68;49.53
42519;BME280;28147;47.520;18.920;2023-01-24T13:33:18;99822.16;;;11.51;49.40
42519;BME280;28147;47.520;18.920;2023-01-24T13:35:50;99820.31;;;11.44;49.96
42519;BME280;28147;47.520;18.920;2023-01-24T13:38:25;99822.53;;;11.34;51.61
42519;BME280;28147;47.520;18.920;2023-01-24T13:41:00;99819.06;;;11.34;53.72
42519;BME280;28147;47.520;18.920;2023-01-24T13:46:02;99825.91;;;10.82;56.80
42519;BME280;28147;47.520;18.920;2023-01-24T13:59:41;99808.47;;;10.79;57.39
42519;BME280;28147;47.520;18.920;2023-01-24T14:03:12;99833.25;;;10.73;57.70
42519;BME280;28147;47.520;18.920;2023-01-24T14:07:55;99830.19;;;10.76;58.29
42519;BME280;28147;47.520;18.920;2023-01-24T14:10:43;99832.47;;;10.86;57.63
42519;BME280;28147;47.520;18.920;2023-01-24T14:21:53;99832.88;;;10.83;59.17
42519;BME280;28147;47.520;18.920;2023-01-24T14:27:32;99833.97;;;10.47;58.78
42519;BME280;28147;47.520;18.920;2023-01-24T14:32:54;99831.75;;;10.57;59.60
42519;BME280;28147;47.520;18.920;2023-01-24T14:37:49;99831.69;;;10.44;60.46
42519;BME280;28147;47.520;18.920;2023-01-24T14:40:19;99837.00;;;10.44;60.30
42519;BME280;28147;47.520;18.920;2023-01-24T14:42:47;99832.72;;;10.43;60.80
42519;BME280;28147;47.520;18.920;2023-01-24T14:45:15;99838.75;;;10.30;61.05
42519;BME280;28147;47.520;18.920;2023-01-24T14:47:46;99839.91;;;10.21;61.63
42519;BME280;28147;47.520;18.920;2023-01-24T14:50:28;99834.53;;;10.14;61.62
42519;BME280;28147;47.520;18.920;2023-01-24T14:52:55;99840.50;;;10.16;61.40
42519;BME280;28147;47.520;18.920;2023-01-24T14:57:53;99841.94;;;10.19;60.94
42519;BME280;28147;47.520;18.920;2023-01-24T15:00:20;99848.03;;;9.85;61.95
42519;BME280;28147;47.520;18.920;2023-01-24T15:03:02;99842.19;;;9.68;62.21
42519;BME280;28147;47.520;18.920;2023-01-24T15:05:30;99843.25;;;9.73;61.98
42519;BME280;28147;47.520;18.920;2023-01-24T15:07:57;99847.66;;;9.60;62.16
42519;BME280;28147;47.520;18.920;2023-01-24T15:10:34;99848.69;;;9.59;60.95
42519;BME280;28147;47.520;18.920;2023-01-24T15:13:03;99858.72;;;9.63;61.45
42519;BME280;28147;47.520;18.920;2023-01-24T15:15:29;99858.56;;;9.43;62.00
42519;BME280;28147;47.520;18.920;2023-01-24T15:18:04;99859.75;;;9.41;61.86
42519;BME280;28147;47.520;18.920;2023-01-24T15:20:32;99857.84;;;9.35;62.26
42519;BME280;28147;47.520;18.920;2023-01-24T15:23:00;99856.41;;;9.32;61.63
42519;BME280;28147;47.520;18.920;2023-01-24T15:25:32;99859.91;;;9.18;61.84
42519;BME280;28147;47.520;18.920;2023-01-24T15:28:36;99855.44;;;9.18;61.75
42519;BME280;28147;47.520;18.920;2023-01-24T15:31:21;99868.25;;;9.15;61.54
42519;BME280;28147;47.520;18.920;2023-01-24T15:33:57;99869.72;;;9.17;61.48
42519;BME280;28147;47.520;18.920;2023-01-24T15:36:32;99871.25;;;9.26;60.76